Language: 


Des rapports , des résumés tant et plus, au choix de chacun....


Données statistiques de la station
Quotidien Rapport Mars 13, 2017 Unités:  Anglais    Métrique   les deux
« Précédent Jour
Suivant Jour »
Quotidien Hebdomadaire Mensuel Annuel Actuel
  Haut: Bas: Moyen:
Température: 58.3 °F 37.8 °F 47.5 °F
Pt de rosée: 52.2 °F 36.5 °F 43.9 °F
Humidité: 98 % 67 % 88 %
Vitesse du vent: 10.5 mph 0 mph 3 mph
Rafales: 13.2 mph - -
Vent:- - NW
Pression: 30.5 in 30 in -
Précipitation: 0 in    
Historical Graphs
 
 
Données statistiques pour Mars 13, 2017
Heure Température Point de rosée Pression Vent Vitesse du vent Refales Humidité Pluie (taux horaire)
00:03 42.1 °F 38.5 °F 30 in Calm   1.6 mph 87 % 0 in
00:08 41.9 °F 38.3 °F 30 in Calm   3.1 mph 87 % 0 in
00:13 42.1 °F 38.5 °F 30 in NW 2 mph 3.1 mph 87 % 0 in
00:18 42.4 °F 39 °F 30 in Calm   3.1 mph 88 % 0 in
00:23 42.6 °F 39.6 °F 30.1 in WNW 3.1 mph 3.8 mph 89 % 0 in
00:28 43.2 °F 40.6 °F 30.1 in North 2.5 mph 5.4 mph 91 % 0 in
00:33 43.5 °F 41.4 °F 30.1 in NW 2 mph 5.4 mph 92 % 0 in
00:38 43.5 °F 41.4 °F 30.1 in WNW 3.4 mph 5.6 mph 92 % 0 in
00:43 43.5 °F 41 °F 30.1 in Calm   5.6 mph 91 % 0 in
00:48 43.5 °F 41 °F 30.1 in Calm   4.3 mph 91 % 0 in
00:53 43.3 °F 40.8 °F 30.1 in Calm   3.1 mph 91 % 0 in
00:58 43.3 °F 40.8 °F 30.1 in NW 0.9 mph 4 mph 91 % 0 in
01:03 43.3 °F 40.8 °F 30.1 in Calm   4 mph 91 % 0 in
01:08 43.2 °F 40.6 °F 30.1 in Calm   4.3 mph 91 % 0 in
01:13 43.3 °F 40.8 °F 30.1 in West 3.1 mph 5.4 mph 91 % 0 in
01:18 43.3 °F 40.8 °F 30.1 in West 2.5 mph 5.4 mph 91 % 0 in
01:23 43.3 °F 41.2 °F 30.1 in WNW 1.6 mph 4.7 mph 92 % 0 in
01:28 43.2 °F 40.8 °F 30.1 in Calm   4.3 mph 92 % 0 in
01:33 42.8 °F 40.3 °F 30.1 in Calm   3.1 mph 91 % 0 in
01:38 42.6 °F 40.1 °F 30.1 in Calm   2 mph 91 % 0 in
01:43 42.3 °F 39.7 °F 30.1 in Calm   2 mph 91 % 0 in
01:48 42.4 °F 40.5 °F 30.1 in North 1.1 mph 3.6 mph 93 % 0 in
01:53 42.8 °F 40.8 °F 30.1 in WNW 6.3 mph 6.3 mph 93 % 0 in
01:58 43.2 °F 41.5 °F 30.1 in North 3.8 mph 6.3 mph 94 % 0 in
02:03 43.3 °F 42.1 °F 30.1 in NNW 2 mph 3.8 mph 95 % 0 in
02:08 43.5 °F 42.1 °F 30.1 in Calm   6 mph 95 % 0 in
02:13 43.3 °F 42.1 °F 30.1 in Calm   6 mph 95 % 0 in
02:18 43.2 °F 41.5 °F 30.1 in WSW 2 mph 4 mph 94 % 0 in
02:23 43 °F 41.4 °F 30.1 in WSW 0.9 mph 3.8 mph 94 % 0 in
02:28 42.6 °F 40.6 °F 30.1 in Calm   2.5 mph 93 % 0 in
02:33 42.3 °F 40.5 °F 30.1 in WNW 0.9 mph 2.5 mph 93 % 0 in
02:38 42.3 °F 40.6 °F 30.1 in WNW 2.9 mph 3.8 mph 94 % 0 in
02:43 42.3 °F 40.6 °F 30.1 in WNW 0.9 mph 3.8 mph 94 % 0 in
02:48 42.3 °F 40.8 °F 30.1 in West 1.3 mph 3.8 mph 95 % 0 in
02:53 42.1 °F 40.5 °F 30.1 in WSW 1.3 mph 3.4 mph 94 % 0 in
02:58 41.4 °F 39.6 °F 30.1 in WSW 2.5 mph 3.4 mph 93 % 0 in
03:03 40.6 °F 38.8 °F 30.1 in Calm   2.9 mph 93 % 0 in
03:08 40.3 °F 38.5 °F 30.1 in WSW 1.1 mph 1.6 mph 93 % 0 in
03:13 40.1 °F 38.3 °F 30.1 in West 1.1 mph 4.3 mph 93 % 0 in
03:18 40.1 °F 38.5 °F 30.1 in West 2 mph 4.3 mph 94 % 0 in
03:23 40.3 °F 39 °F 30.1 in West 2.9 mph 4.3 mph 95 % 0 in
03:28 40.6 °F 39.4 °F 30.1 in West 2.5 mph 3.6 mph 95 % 0 in
03:33 40.8 °F 39.6 °F 30.1 in Calm   3.6 mph 95 % 0 in
03:38 41 °F 39.9 °F 30.1 in Calm   3.1 mph 96 % 0 in
03:43 41 °F 39.9 °F 30.1 in West 2 mph 3.6 mph 96 % 0 in
03:48 41.4 °F 40.3 °F 30.1 in West 2 mph 3.8 mph 96 % 0 in
03:53 41.5 °F 40.5 °F 30.1 in West 2.2 mph 3.8 mph 96 % 0 in
03:58 41.7 °F 40.6 °F 30.1 in West 2.2 mph 3.8 mph 96 % 0 in
04:03 41.7 °F 40.6 °F 30.1 in WNW 1.6 mph 4.3 mph 96 % 0 in
04:08 41.9 °F 40.8 °F 30.2 in West 1.6 mph 4.3 mph 96 % 0 in
04:13 41.9 °F 40.8 °F 30.2 in WNW 1.1 mph 3.4 mph 96 % 0 in
04:18 41.5 °F 40.5 °F 30.2 in Calm   2.7 mph 96 % 0 in
04:23 41.4 °F 40.3 °F 30.2 in Calm   2.5 mph 96 % 0 in
04:28 41.2 °F 40.1 °F 30.2 in West 2.9 mph 3.1 mph 96 % 0 in
04:33 41.5 °F 40.6 °F 30.2 in NW 1.1 mph 4 mph 97 % 0 in
04:38 41.9 °F 41.2 °F 30.2 in Calm   4 mph 97 % 0 in
04:44 42.3 °F 41.7 °F 30.2 in Calm   6 mph 98 % 0 in
04:49 42.4 °F 41.9 °F 30.2 in WNW 1.1 mph 6 mph 98 % 0 in
04:54 42.6 °F 42.1 °F 30.2 in North 1.3 mph 3.6 mph 98 % 0 in
04:59 42.6 °F 42.1 °F 30.2 in North 2.2 mph 3.6 mph 98 % 0 in
05:04 42.8 °F 42.3 °F 30.2 in North 1.6 mph 3.8 mph 98 % 0 in
05:09 43.2 °F 42.6 °F 30.2 in Calm   6 mph 98 % 0 in
05:14 43.3 °F 42.8 °F 30.2 in NNW 2.5 mph 6.5 mph 98 % 0 in
05:19 43.3 °F 42.8 °F 30.2 in North 1.6 mph 6.5 mph 98 % 0 in
05:24 43.3 °F 42.8 °F 30.2 in NNE 2.5 mph 5.6 mph 98 % 0 in
05:29 43.3 °F 42.8 °F 30.2 in NNE 1.3 mph 5.8 mph 98 % 0 in
05:34 43.2 °F 42.6 °F 30.2 in NNE 2.5 mph 5.8 mph 98 % 0 in
05:39 43.2 °F 42.6 °F 30.2 in NNE 2.7 mph 4.3 mph 98 % 0 in
05:44 43.2 °F 42.6 °F 30.2 in North 2 mph 3.6 mph 98 % 0 in
05:49 43.2 °F 42.6 °F 30.2 in Calm   5.4 mph 98 % 0 in
05:54 43 °F 42.4 °F 30.2 in Calm   5.4 mph 98 % 0 in
05:55 43 °F 42.4 °F 30.2 in Calm   5.4 mph 98 % 0 in
06:00 43 °F 42.4 °F 30.2 in Calm   3.4 mph 98 % 0 in
06:05 42.8 °F 42.3 °F 30.2 in Calm   2.9 mph 98 % 0 in
06:10 42.6 °F 42.1 °F 30.2 in WNW 2.5 mph 2.9 mph 98 % 0 in
06:15 42.8 °F 42.3 °F 30.2 in NNW 2 mph 4.9 mph 98 % 0 in
06:20 42.8 °F 42.3 °F 30.2 in North 3.4 mph 7.6 mph 98 % 0 in
06:25 43 °F 42.4 °F 30.2 in WNW 6.3 mph 7.6 mph 98 % 0 in
06:30 43.2 °F 42.6 °F 30.2 in NNW 3.1 mph 7.4 mph 98 % 0 in
06:35 43.2 °F 42.6 °F 30.2 in WNW 3.8 mph 7.4 mph 98 % 0 in
06:40 43.2 °F 42.6 °F 30.2 in North 4 mph 7.4 mph 98 % 0 in
06:45 43.3 °F 42.8 °F 30.2 in NNW 5.8 mph 7.6 mph 98 % 0 in
06:50 43.3 °F 42.8 °F 30.2 in NNW 3.4 mph 7.6 mph 98 % 0 in
06:56 43.2 °F 42.6 °F 30.2 in WNW 2 mph 6.3 mph 98 % 0 in
07:01 43.2 °F 42.6 °F 30.2 in NNW 6 mph 6 mph 98 % 0 in
07:06 43.3 °F 42.8 °F 30.2 in WNW 4.7 mph 6 mph 98 % 0 in
07:11 43.5 °F 43 °F 30.2 in North 7.2 mph 9.2 mph 98 % 0 in
07:16 43.5 °F 43 °F 30.2 in WNW 2.9 mph 9.2 mph 98 % 0 in
07:21 43.5 °F 43.2 °F 30.2 in NNW 3.4 mph 7.8 mph 98 % 0 in
07:26 44.1 °F 43.5 °F 30.2 in NNW 8.1 mph 11 mph 98 % 0 in
07:31 44.2 °F 43.5 °F 30.2 in NNW 8.9 mph 11 mph 98 % 0 in
07:36 44.2 °F 43.9 °F 30.2 in NNW 3.8 mph 12.8 mph 98 % 0 in
07:41 44.4 °F 44.1 °F 30.2 in NNW 7.2 mph 12.8 mph 98 % 0 in
07:46 45 °F 44.2 °F 30.2 in North 4.9 mph 11.4 mph 98 % 0 in
07:51 45.1 °F 44.8 °F 30.2 in West 5.8 mph 10.3 mph 98 % 0 in
07:56 45.7 °F 45.1 °F 30.2 in North 5.4 mph 12.5 mph 98 % 0 in
08:01 46 °F 45.7 °F 30.2 in North 5.8 mph 13.2 mph 98 % 0 in
08:06 46.6 °F 45.9 °F 30.2 in North 6 mph 13.2 mph 98 % 0 in
08:11 46.6 °F 46 °F 30.2 in North 8.7 mph 13 mph 98 % 0 in
08:16 46.8 °F 46.2 °F 30.2 in North 6.3 mph 12.3 mph 98 % 0 in
08:21 47.1 °F 46.6 °F 30.2 in North 5.4 mph 12.3 mph 98 % 0 in
08:26 47.5 °F 46.9 °F 30.2 in NW 8.7 mph 10.3 mph 98 % 0 in
08:31 47.8 °F 47.3 °F 30.2 in NNW 4 mph 9.8 mph 98 % 0 in
08:36 47.8 °F 47.3 °F 30.2 in North 5.4 mph 9.8 mph 98 % 0 in
08:41 47.8 °F 47.3 °F 30.3 in North 3.6 mph 7.8 mph 98 % 0 in
08:46 48 °F 47.5 °F 30.3 in North 4.3 mph 4.9 mph 98 % 0 in
08:51 48.2 °F 47.7 °F 30.3 in NNW 2.5 mph 4.9 mph 98 % 0 in
08:56 48.2 °F 47.7 °F 30.3 in North 3.6 mph 7.8 mph 98 % 0 in
09:01 48.4 °F 47.8 °F 30.3 in North 4.9 mph 7.8 mph 98 % 0 in
09:06 48.4 °F 47.8 °F 30.3 in North 4.5 mph 7.4 mph 98 % 0 in
09:11 48.6 °F 48 °F 30.3 in North 3.6 mph 7.4 mph 98 % 0 in
09:16 48.7 °F 48.2 °F 30.3 in NNW 5.4 mph 6.5 mph 98 % 0 in
09:21 48.7 °F 48.2 °F 30.3 in NE 2.9 mph 6 mph 98 % 0 in
09:26 48.9 °F 48.4 °F 30.3 in NNE 2.2 mph 5.6 mph 98 % 0 in
09:31 48.9 °F 48.4 °F 30.3 in NW 3.1 mph 6.3 mph 98 % 0 in
09:36 49.1 °F 48.6 °F 30.3 in North 3.8 mph 6.3 mph 98 % 0 in
09:41 49.3 °F 48.7 °F 30.2 in NNW 3.1 mph 5.6 mph 98 % 0 in
09:46 49.5 °F 48.9 °F 30.2 in NNW 4 mph 5.8 mph 98 % 0 in
09:51 49.6 °F 49.1 °F 30.2 in NNW 2.9 mph 5.8 mph 98 % 0 in
09:56 49.8 °F 49.3 °F 30.3 in NW 3.6 mph 6 mph 98 % 0 in
10:01 49.8 °F 49.3 °F 30.3 in North 7.6 mph 7.6 mph 98 % 0 in
10:06 50 °F 49.5 °F 30.3 in NNW 4.3 mph 8.7 mph 98 % 0 in
10:11 50.2 °F 49.6 °F 30.3 in NNW 5.4 mph 8.7 mph 98 % 0 in
10:16 50.7 °F 50.2 °F 30.3 in North 4.7 mph 7.6 mph 98 % 0 in
10:21 51.1 °F 50.5 °F 30.3 in North 2.7 mph 7.6 mph 98 % 0 in
10:26 51.3 °F 50.7 °F 30.3 in North 6 mph 9.8 mph 98 % 0 in
10:31 51.4 °F 50.5 °F 30.3 in North 5.8 mph 9.8 mph 97 % 0 in
10:36 51.8 °F 50.9 °F 30.3 in NNW 8.5 mph 9.6 mph 97 % 0 in
10:41 51.8 °F 50.9 °F 30.3 in NNE 3.6 mph 9.6 mph 97 % 0 in
10:46 52 °F 50.7 °F 30.3 in NNW 4.9 mph 8.5 mph 96 % 0 in
10:51 51.6 °F 50.5 °F 30.3 in NW 5.8 mph 12.1 mph 96 % 0 in
10:56 51.4 °F 50.4 °F 30.3 in NNW 7.2 mph 12.1 mph 96 % 0 in
11:01 51.6 °F 50.5 °F 30.3 in North 6.7 mph 7.8 mph 96 % 0 in
11:06 51.8 °F 50.4 °F 30.3 in North 3.4 mph 7.4 mph 95 % 0 in
11:11 52.3 °F 50.9 °F 30.3 in North 4 mph 8.5 mph 95 % 0 in
11:16 52.5 °F 51.1 °F 30.3 in NNE 3.4 mph 10.5 mph 95 % 0 in
11:21 52.5 °F 51.3 °F 30.3 in North 4.3 mph 10.5 mph 95 % 0 in
11:26 52.9 °F 51.4 °F 30.3 in North 4.3 mph 8.5 mph 95 % 0 in
11:32 53.1 °F 51.3 °F 30.3 in NNW 5.8 mph 8.5 mph 94 % 0 in
11:37 53.8 °F 52 °F 30.3 in WNW 3.4 mph 6.3 mph 94 % 0 in
11:42 54 °F 52.2 °F 30.3 in NNW 4.3 mph 8.7 mph 94 % 0 in
11:47 54 °F 52 °F 30.3 in North 2.7 mph 8.7 mph 93 % 0 in
11:52 53.8 °F 51.4 °F 30.3 in North 6 mph 10.7 mph 92 % 0 in
11:57 53.8 °F 51.1 °F 30.3 in NNW 9.8 mph 10.7 mph 91 % 0 in
12:02 54 °F 51.3 °F 30.3 in North 7.4 mph 9.8 mph 91 % 0 in
12:07 53.8 °F 50.7 °F 30.3 in North 4 mph 10.5 mph 90 % 0 in
12:12 53.2 °F 50 °F 30.3 in NNW 6.5 mph 10.5 mph 89 % 0 in
12:17 53.2 °F 50.2 °F 30.3 in NNE 6 mph 10.3 mph 89 % 0 in
12:22 53.2 °F 50.4 °F 30.3 in North 5.6 mph 10.1 mph 90 % 0 in
12:27 53.4 °F 50.4 °F 30.3 in NNE 6.5 mph 10.1 mph 89 % 0 in
12:32 53.8 °F 50.5 °F 30.3 in NNW 6.5 mph 10.1 mph 89 % 0 in
12:37 54 °F 50.7 °F 30.3 in WNW 7.8 mph 10.5 mph 89 % 0 in
12:42 54.9 °F 51.3 °F 30.3 in North 10.5 mph 10.5 mph 88 % 0 in
12:47 54.9 °F 51.1 °F 30.3 in North 10.3 mph 10.5 mph 87 % 0 in
12:52 55 °F 50.4 °F 30.3 in North 6.3 mph 12.1 mph 84 % 0 in
12:58 55.6 °F 50.9 °F 30.3 in NNW 5.6 mph 12.1 mph 84 % 0 in
13:03 55.6 °F 50.9 °F 30.3 in NW 4 mph 9.6 mph 84 % 0 in
13:08 56.1 °F 51.4 °F 30.3 in North 4.5 mph 7.8 mph 84 % 0 in
13:13 56.7 °F 51.6 °F 30.3 in North 6 mph 10.1 mph 83 % 0 in
13:18 56.8 °F 51.1 °F 30.3 in NW 8.1 mph 11 mph 81 % 0 in
13:23 57.4 °F 51.3 °F 30.3 in North 5.4 mph 11 mph 80 % 0 in
13:28 57.7 °F 50.9 °F 30.3 in North 6 mph 10.1 mph 78 % 0 in
13:33 58.3 °F 51.1 °F 30.3 in North 9.8 mph 10.1 mph 77 % 0 in
13:38 57.9 °F 50.2 °F 30.3 in North 5.4 mph 9.8 mph 75 % 0 in
13:43 57.4 °F 49.8 °F 30.3 in North 5.6 mph 9.8 mph 76 % 0 in
13:48 57.2 °F 49.6 °F 30.3 in WNW 5.4 mph 7.4 mph 76 % 0 in
13:53 56.7 °F 48.9 °F 30.3 in NNW 6.5 mph 8.1 mph 75 % 0 in
13:58 56.5 °F 48.7 °F 30.3 in North 8.1 mph 8.7 mph 75 % 0 in
14:03 56.5 °F 48.7 °F 30.3 in NNE 2.7 mph 8.7 mph 75 % 0 in
14:08 56.7 °F 48.9 °F 30.4 in North 3.1 mph 11 mph 75 % 0 in
14:13 56.5 °F 48.7 °F 30.4 in West 8.5 mph 11 mph 75 % 0 in
14:18 56.3 °F 48.2 °F 30.4 in NNW 6.5 mph 10.1 mph 74 % 0 in
14:23 56.8 °F 48.7 °F 30.3 in WNW 4.3 mph 9.8 mph 74 % 0 in
14:28 56.8 °F 48.7 °F 30.3 in North 4.9 mph 9.8 mph 74 % 0 in
14:33 56.5 °F 48.4 °F 30.3 in NNE 8.1 mph 8.1 mph 74 % 0 in
14:38 55.9 °F 47.5 °F 30.4 in North 5.4 mph 9.8 mph 73 % 0 in
14:43 56.1 °F 48 °F 30.4 in NW 5.6 mph 10.5 mph 74 % 0 in
14:48 56.8 °F 48.4 °F 30.4 in North 8.5 mph 10.7 mph 73 % 0 in
14:53 57 °F 48.6 °F 30.4 in North 4.3 mph 10.7 mph 73 % 0 in
14:54 56.8 °F 47.8 °F 30.4 in North 3.4 mph 10.7 mph 72 % 0 in
14:59 56.8 °F 47.8 °F 30.4 in North 5.8 mph 8.5 mph 72 % 0 in
15:04 56.8 °F 47.8 °F 30.4 in NNW 4 mph 8.5 mph 72 % 0 in
15:09 57.2 °F 48.4 °F 30.4 in NNW 4.3 mph 8.1 mph 72 % 0 in
15:14 56.7 °F 47.5 °F 30.4 in NNW 2 mph 8.1 mph 71 % 0 in
15:19 57.2 °F 48.4 °F 30.4 in NW 6.5 mph 8.5 mph 72 % 0 in
15:24 57.4 °F 48.4 °F 30.4 in North 3.4 mph 10.7 mph 72 % 0 in
15:29 57.4 °F 48 °F 30.4 in West 4.5 mph 10.7 mph 71 % 0 in
15:34 57.2 °F 47.5 °F 30.4 in North 6 mph 12.3 mph 70 % 0 in
15:39 57.2 °F 47.5 °F 30.4 in NNW 5.8 mph 12.3 mph 70 % 0 in
15:44 57.4 °F 47.7 °F 30.4 in NNW 6 mph 8.7 mph 70 % 0 in
15:49 57.2 °F 47.1 °F 30.4 in NNW 3.8 mph 8.7 mph 69 % 0 in
15:54 56.7 °F 45.9 °F 30.4 in NNW 6.3 mph 8.7 mph 67 % 0 in
15:59 56.7 °F 46.2 °F 30.4 in WNW 3.6 mph 10.1 mph 68 % 0 in
16:04 57 °F 46.9 °F 30.4 in North 4.5 mph 10.1 mph 69 % 0 in
16:10 56.5 °F 46 °F 30.4 in North 8.7 mph 8.7 mph 68 % 0 in
16:15 56.3 °F 46.2 °F 30.4 in NNW 4.7 mph 10.5 mph 69 % 0 in
16:20 56.5 °F 46.8 °F 30.4 in NNW 6.5 mph 10.5 mph 70 % 0 in
16:24 55.8 °F 45.3 °F 30.4 in North 7.2 mph 9.4 mph 68 % 0 in
16:30 56.1 °F 46.6 °F 30.4 in NNW 1.1 mph 9.4 mph 70 % 0 in
16:35 56.5 °F 46.8 °F 30.4 in North 3.1 mph 6 mph 70 % 0 in
16:40 56.3 °F 46.2 °F 30.4 in NW 2.7 mph 6.3 mph 69 % 0 in
16:45 56.1 °F 46 °F 30.4 in North 3.8 mph 8.7 mph 69 % 0 in
16:50 55.8 °F 45.3 °F 30.4 in NNW 2.2 mph 8.7 mph 68 % 0 in
16:55 55.8 °F 45.9 °F 30.4 in North 4.9 mph 8.1 mph 69 % 0 in
17:00 55.8 °F 45.9 °F 30.4 in NW 3.4 mph 6.3 mph 69 % 0 in
17:05 55.6 °F 45.7 °F 30.4 in North 4.3 mph 6.3 mph 69 % 0 in
17:10 55.8 °F 45.9 °F 30.4 in North 2.9 mph 6.3 mph 69 % 0 in
17:15 55.6 °F 45.7 °F 30.4 in NNE 6.3 mph 6.3 mph 69 % 0 in
17:20 55.6 °F 45.1 °F 30.4 in NNW 3.4 mph 6.3 mph 68 % 0 in
17:25 55.2 °F 45 °F 30.4 in North 1.3 mph 5.8 mph 68 % 0 in
17:30 54.9 °F 44.8 °F 30.4 in NNE 3.6 mph 6 mph 69 % 0 in
17:35 54.7 °F 44.6 °F 30.4 in North 5.6 mph 7.2 mph 69 % 0 in
17:40 54 °F 44.1 °F 30.4 in NNE 4.3 mph 7.2 mph 69 % 0 in
17:45 54 °F 44.4 °F 30.4 in NNW 2.9 mph 7.2 mph 70 % 0 in
17:50 53.8 °F 44.4 °F 30.4 in North 2.9 mph 6.3 mph 71 % 0 in
17:55 53.8 °F 44.4 °F 30.4 in WNW 2.5 mph 6.3 mph 71 % 0 in
18:00 53.2 °F 44.2 °F 30.4 in WNW 1.6 mph 5.6 mph 71 % 0 in
18:05 52.9 °F 44.1 °F 30.4 in North 3.1 mph 5.6 mph 72 % 0 in
18:10 52.5 °F 43.9 °F 30.4 in WNW 2.7 mph 4 mph 72 % 0 in
18:15 52.3 °F 43.5 °F 30.4 in WNW 2.5 mph 4.9 mph 72 % 0 in
18:20 51.8 °F 43 °F 30.4 in NW 3.4 mph 4.9 mph 72 % 0 in
18:25 51.4 °F 43 °F 30.4 in NNW 2.7 mph 4.7 mph 73 % 0 in
18:30 51.3 °F 43 °F 30.4 in North 2.5 mph 4 mph 73 % 0 in
18:35 50.7 °F 42.6 °F 30.4 in NNW 3.1 mph 4.3 mph 74 % 0 in
18:40 50.5 °F 42.4 °F 30.4 in NNW 2.7 mph 4.3 mph 74 % 0 in
18:45 50 °F 42.4 °F 30.4 in North 2.5 mph 3.8 mph 75 % 0 in
18:50 49.8 °F 42.3 °F 30.4 in WNW 2.9 mph 4.3 mph 75 % 0 in
18:55 49.5 °F 42.3 °F 30.4 in NW 3.6 mph 4.9 mph 76 % 0 in
19:00 49.3 °F 42.1 °F 30.4 in NW 2.7 mph 4.9 mph 76 % 0 in
19:05 48.9 °F 42.1 °F 30.4 in Calm   3.8 mph 77 % 0 in
19:11 48.6 °F 41.7 °F 30.4 in NNW 3.1 mph 3.8 mph 77 % 0 in
19:16 48.4 °F 41.5 °F 30.4 in North 2.7 mph 3.8 mph 77 % 0 in
19:21 48 °F 41.5 °F 30.4 in Calm   3.8 mph 78 % 0 in
19:26 47.8 °F 41.7 °F 30.4 in NNW 1.3 mph 3.6 mph 79 % 0 in
19:31 47.5 °F 41.4 °F 30.4 in Calm   2.7 mph 79 % 0 in
19:36 47.1 °F 41 °F 30.4 in Calm   2.7 mph 79 % 0 in
19:41 46.6 °F 40.5 °F 30.4 in Calm   0.9 mph 79 % 0 in
19:46 46.2 °F 40.5 °F 30.4 in Calm     80 % 0 in
19:51 45.9 °F 39.9 °F 30.4 in Calm     80 % 0 in
19:56 45.1 °F 39.4 °F 30.4 in Calm     80 % 0 in
20:01 44.4 °F 39 °F 30.4 in Calm     81 % 0 in
20:06 44.1 °F 38.8 °F 30.4 in Calm     82 % 0 in
20:11 43.5 °F 38.3 °F 30.4 in Calm     82 % 0 in
20:16 43.2 °F 38.3 °F 30.4 in Calm     83 % 0 in
20:21 43 °F 38.5 °F 30.4 in Calm     84 % 0 in
20:26 42.8 °F 38.3 °F 30.4 in Calm     84 % 0 in
20:31 42.6 °F 38.1 °F 30.4 in Calm     84 % 0 in
20:36 42.3 °F 38.3 °F 30.4 in Calm     86 % 0 in
20:41 42.1 °F 38.1 °F 30.4 in Calm     86 % 0 in
20:46 41.5 °F 37.6 °F 30.4 in Calm     86 % 0 in
20:51 41 °F 37 °F 30.4 in Calm     86 % 0 in
20:56 40.8 °F 37.2 °F 30.4 in Calm     87 % 0 in
21:01 40.6 °F 37.4 °F 30.4 in Calm     88 % 0 in
21:06 40.5 °F 37.2 °F 30.4 in Calm     88 % 0 in
21:11 40.1 °F 36.9 °F 30.4 in Calm     88 % 0 in
21:16 39.7 °F 36.5 °F 30.4 in Calm     88 % 0 in
21:21 39.7 °F 36.5 °F 30.4 in Calm     88 % 0 in
21:26 39.7 °F 36.9 °F 30.4 in Calm     89 % 0 in
21:31 39.6 °F 36.9 °F 30.4 in Calm     90 % 0 in
21:36 39.4 °F 36.7 °F 30.4 in Calm     90 % 0 in
21:41 39.4 °F 36.7 °F 30.4 in Calm     90 % 0 in
21:46 39.6 °F 37.2 °F 30.4 in Calm     91 % 0 in
21:51 40.1 °F 37.8 °F 30.4 in West 1.6 mph 3.4 mph 91 % 0 in
21:56 40.3 °F 38.1 °F 30.4 in WNW 2.7 mph 3.4 mph 92 % 0 in
22:01 40.6 °F 38.5 °F 30.4 in West 2 mph 2.7 mph 92 % 0 in
22:06 40.6 °F 38.8 °F 30.4 in Calm   2.9 mph 93 % 0 in
22:11 40.3 °F 38.1 °F 30.5 in West 2.5 mph 2.9 mph 92 % 0 in
22:16 40.1 °F 37.9 °F 30.5 in West 1.6 mph 2.7 mph 92 % 0 in
22:22 39.7 °F 37.6 °F 30.5 in West 2.2 mph 2.5 mph 92 % 0 in
22:27 39.6 °F 37.6 °F 30.5 in West 2 mph 2.7 mph 92 % 0 in
22:32 39.4 °F 37.2 °F 30.5 in Calm   2.7 mph 92 % 0 in
22:37 39.6 °F 37.8 °F 30.5 in West 2.7 mph 2.7 mph 93 % 0 in
22:42 39.7 °F 38.1 °F 30.4 in Calm   2.7 mph 94 % 0 in
22:47 39.9 °F 38.5 °F 30.4 in Calm   2.7 mph 94 % 0 in
22:52 40.1 °F 38.5 °F 30.4 in Calm     94 % 0 in
22:57 39.9 °F 38.5 °F 30.4 in West 2.9 mph 2.9 mph 94 % 0 in
23:02 39.7 °F 38.1 °F 30.4 in WSW 3.1 mph 4.3 mph 94 % 0 in
23:07 39.6 °F 37.9 °F 30.4 in Calm   4.3 mph 94 % 0 in
23:12 39.2 °F 37.8 °F 30.5 in Calm   3.4 mph 94 % 0 in
23:17 39.4 °F 37.8 °F 30.5 in Calm   2.5 mph 94 % 0 in
23:22 39.4 °F 38.1 °F 30.5 in Calm   2.5 mph 95 % 0 in
23:27 39.2 °F 37.9 °F 30.5 in Calm   2.2 mph 95 % 0 in
23:32 38.8 °F 37.6 °F 30.5 in Calm     95 % 0 in
23:37 38.7 °F 37.4 °F 30.5 in Calm     95 % 0 in
23:42 38.5 °F 37 °F 30.4 in Calm     95 % 0 in
23:47 38.1 °F 36.9 °F 30.4 in Calm     95 % 0 in
23:52 37.9 °F 36.7 °F 30.4 in Calm     95 % 0 in
23:57 37.8 °F 36.5 °F 30.4 in Calm     95 % 0 in
Le Gheer Warneton
Courtoisie de Weather Underground - 2.25 mb

Mise a jour : 18/12/2017 23:22:12
Généré par Cumulus 1.9.4 (1099)